Terminal Aerodrome Forecast
Issued by NWS

Home | Current Version | Previous Version | Graphics & Text | Print | Product List | Glossary On
Versions: 1 2 3 4 5 6 7 8 9 10 11 12 13 14 15 16 17
000
FTUS43 KTOP 281734
TAFMHK
TAF
KMHK 281734Z 2818/2918 22022G33KT P6SM FEW045
     FM290000 19010G23KT P6SM SCT250
     FM290200 19013KT P6SM SCT140 WS020/20050KT
     FM290900 19012KT P6SM VCTS BKN080CB WS020/20045KT
     FM291300 19013G25KT P6SM BKN120=

USA.gov is the U.S. government's official web portal to all federal, state and local government web resources and services.